sensor_id;sensor_type;location;lat;lon;timestamp;temperature;humidity
22491;DHT22;11412;50.802;4.350;2022-08-19T00:00:45;19.40;99.90
22491;DHT22;11412;50.802;4.350;2022-08-19T00:03:11;19.30;99.90
22491;DHT22;11412;50.802;4.350;2022-08-19T00:05:37;19.30;99.90
22491;DHT22;11412;50.802;4.350;2022-08-19T00:08:03;19.30;99.90
22491;DHT22;11412;50.802;4.350;2022-08-19T00:10:28;19.30;99.90
22491;DHT22;11412;50.802;4.350;2022-08-19T00:12:54;19.30;99.90
22491;DHT22;11412;50.802;4.350;2022-08-19T00:15:21;19.30;99.90
22491;DHT22;11412;50.802;4.350;2022-08-19T00:17:48;19.30;99.90
22491;DHT22;11412;50.802;4.350;2022-08-19T00:20:17;19.50;99.90
22491;DHT22;11412;50.802;4.350;2022-08-19T00:22:44;19.50;99.90
22491;DHT22;11412;50.802;4.350;2022-08-19T00:25:10;19.40;99.90
22491;DHT22;11412;50.802;4.350;2022-08-19T00:27:36;19.60;99.90
22491;DHT22;11412;50.802;4.350;2022-08-19T00:30:03;19.60;99.90
22491;DHT22;11412;50.802;4.350;2022-08-19T00:32:29;19.70;99.90
22491;DHT22;11412;50.802;4.350;2022-08-19T00:34:55;19.80;99.90
22491;DHT22;11412;50.802;4.350;2022-08-19T00:37:22;19.80;99.90
22491;DHT22;11412;50.802;4.350;2022-08-19T00:39:49;19.70;99.90
22491;DHT22;11412;50.802;4.350;2022-08-19T00:42:17;19.70;99.90
22491;DHT22;11412;50.802;4.350;2022-08-19T00:44:43;19.80;99.90
22491;DHT22;11412;50.802;4.350;2022-08-19T00:47:08;19.80;99.90
22491;DHT22;11412;50.802;4.350;2022-08-19T00:49:41;19.80;99.90
22491;DHT22;11412;50.802;4.350;2022-08-19T00:52:14;19.80;99.90
22491;DHT22;11412;50.802;4.350;2022-08-19T00:54:41;19.90;99.90
22491;DHT22;11412;50.802;4.350;2022-08-19T00:57:12;20.10;99.90
22491;DHT22;11412;50.802;4.350;2022-08-19T00:59:43;20.20;99.90
22491;DHT22;11412;50.802;4.350;2022-08-19T01:02:11;20.20;99.90
22491;DHT22;11412;50.802;4.350;2022-08-19T01:04:37;20.00;99.90
22491;DHT22;11412;50.802;4.350;2022-08-19T01:07:03;20.00;99.90
22491;DHT22;11412;50.802;4.350;2022-08-19T01:09:30;20.10;99.90
22491;DHT22;11412;50.802;4.350;2022-08-19T01:11:56;20.00;99.90
22491;DHT22;11412;50.802;4.350;2022-08-19T01:14:22;19.90;99.90
22491;DHT22;11412;50.802;4.350;2022-08-19T01:16:49;19.80;99.90
22491;DHT22;11412;50.802;4.350;2022-08-19T01:19:29;19.80;99.90
22491;DHT22;11412;50.802;4.350;2022-08-19T01:24:52;19.70;99.90
22491;DHT22;11412;50.802;4.350;2022-08-19T01:27:17;19.70;99.90
22491;DHT22;11412;50.802;4.350;2022-08-19T01:29:44;19.60;99.90
22491;DHT22;11412;50.802;4.350;2022-08-19T01:32:13;19.60;99.90
22491;DHT22;11412;50.802;4.350;2022-08-19T01:34:40;19.50;99.90
22491;DHT22;11412;50.802;4.350;2022-08-19T01:37:09;19.50;99.90
22491;DHT22;11412;50.802;4.350;2022-08-19T01:39:38;19.40;99.90
22491;DHT22;11412;50.802;4.350;2022-08-19T01:42:05;19.40;99.90
22491;DHT22;11412;50.802;4.350;2022-08-19T01:44:32;19.40;99.90
22491;DHT22;11412;50.802;4.350;2022-08-19T01:46:58;19.30;99.90
22491;DHT22;11412;50.802;4.350;2022-08-19T01:49:25;19.30;99.90
22491;DHT22;11412;50.802;4.350;2022-08-19T01:51:52;19.20;99.90
22491;DHT22;11412;50.802;4.350;2022-08-19T01:54:21;19.20;99.90
22491;DHT22;11412;50.802;4.350;2022-08-19T01:56:47;19.20;99.90
22491;DHT22;11412;50.802;4.350;2022-08-19T01:59:18;19.20;99.90
22491;DHT22;11412;50.802;4.350;2022-08-19T02:01:45;19.20;99.90
22491;DHT22;11412;50.802;4.350;2022-08-19T02:04:10;19.20;99.90
22491;DHT22;11412;50.802;4.350;2022-08-19T02:06:37;19.10;99.90
22491;DHT22;11412;50.802;4.350;2022-08-19T02:09:04;19.10;99.90
22491;DHT22;11412;50.802;4.350;2022-08-19T02:11:34;19.00;99.90
22491;DHT22;11412;50.802;4.350;2022-08-19T02:14:06;19.00;99.90
22491;DHT22;11412;50.802;4.350;2022-08-19T02:16:33;19.00;99.90
22491;DHT22;11412;50.802;4.350;2022-08-19T02:18:59;19.00;99.90
22491;DHT22;11412;50.802;4.350;2022-08-19T02:21:28;18.90;99.90
22491;DHT22;11412;50.802;4.350;2022-08-19T02:23:55;18.80;99.90
22491;DHT22;11412;50.802;4.350;2022-08-19T02:26:21;18.90;99.90
22491;DHT22;11412;50.802;4.350;2022-08-19T02:28:46;18.80;99.90
22491;DHT22;11412;50.802;4.350;2022-08-19T02:31:19;18.80;99.90
22491;DHT22;11412;50.802;4.350;2022-08-19T02:33:46;18.80;99.90
22491;DHT22;11412;50.802;4.350;2022-08-19T02:36:13;18.90;99.90
22491;DHT22;11412;50.802;4.350;2022-08-19T02:38:39;18.80;99.90
22491;DHT22;11412;50.802;4.350;2022-08-19T02:41:15;18.80;99.90
22491;DHT22;11412;50.802;4.350;2022-08-19T02:43:41;18.70;99.90
22491;DHT22;11412;50.802;4.350;2022-08-19T02:46:16;18.70;99.90
22491;DHT22;11412;50.802;4.350;2022-08-19T02:48:49;18.70;99.90
22491;DHT22;11412;50.802;4.350;2022-08-19T02:51:21;18.60;99.90
22491;DHT22;11412;50.802;4.350;2022-08-19T02:53:47;18.60;99.90
22491;DHT22;11412;50.802;4.350;2022-08-19T02:56:13;18.50;99.90
22491;DHT22;11412;50.802;4.350;2022-08-19T02:58:39;18.50;99.90
22491;DHT22;11412;50.802;4.350;2022-08-19T03:01:05;18.50;99.90
22491;DHT22;11412;50.802;4.350;2022-08-19T03:03:31;18.50;99.90
22491;DHT22;11412;50.802;4.350;2022-08-19T03:06:10;18.40;99.90
22491;DHT22;11412;50.802;4.350;2022-08-19T03:08:37;18.40;99.90
22491;DHT22;11412;50.802;4.350;2022-08-19T03:11:03;18.40;99.90
22491;DHT22;11412;50.802;4.350;2022-08-19T03:13:29;18.40;99.90
22491;DHT22;11412;50.802;4.350;2022-08-19T03:15:55;18.30;99.90
22491;DHT22;11412;50.802;4.350;2022-08-19T03:18:20;18.30;99.90
22491;DHT22;11412;50.802;4.350;2022-08-19T03:20:50;18.30;99.90
22491;DHT22;11412;50.802;4.350;2022-08-19T03:23:18;18.30;99.90
22491;DHT22;11412;50.802;4.350;2022-08-19T03:25:47;18.20;99.90
22491;DHT22;11412;50.802;4.350;2022-08-19T03:28:14;18.20;99.90
22491;DHT22;11412;50.802;4.350;2022-08-19T03:30:42;18.30;99.90
22491;DHT22;11412;50.802;4.350;2022-08-19T03:33:10;18.30;99.90
22491;DHT22;11412;50.802;4.350;2022-08-19T03:35:39;18.20;99.90
22491;DHT22;11412;50.802;4.350;2022-08-19T03:38:06;18.20;99.90
22491;DHT22;11412;50.802;4.350;2022-08-19T03:40:32;18.20;99.90
22491;DHT22;11412;50.802;4.350;2022-08-19T03:43:02;18.10;99.90
22491;DHT22;11412;50.802;4.350;2022-08-19T03:45:28;18.10;99.90
22491;DHT22;11412;50.802;4.350;2022-08-19T03:47:55;18.10;99.90
22491;DHT22;11412;50.802;4.350;2022-08-19T03:50:21;18.00;99.90
22491;DHT22;11412;50.802;4.350;2022-08-19T03:52:50;18.00;99.90
22491;DHT22;11412;50.802;4.350;2022-08-19T03:55:17;18.00;99.90
22491;DHT22;11412;50.802;4.350;2022-08-19T03:57:42;18.30;99.90
22491;DHT22;11412;50.802;4.350;2022-08-19T04:00:09;18.20;99.90
22491;DHT22;11412;50.802;4.350;2022-08-19T04:02:34;18.20;99.90
22491;DHT22;11412;50.802;4.350;2022-08-19T04:05:00;18.10;99.90
22491;DHT22;11412;50.802;4.350;2022-08-19T04:07:26;18.10;99.90
22491;DHT22;11412;50.802;4.350;2022-08-19T04:09:51;18.00;99.90
22491;DHT22;11412;50.802;4.350;2022-08-19T04:12:18;17.80;99.90
22491;DHT22;11412;50.802;4.350;2022-08-19T04:14:45;17.90;99.90
22491;DHT22;11412;50.802;4.350;2022-08-19T04:17:12;18.00;99.90
22491;DHT22;11412;50.802;4.350;2022-08-19T04:19:40;18.00;99.90
22491;DHT22;11412;50.802;4.350;2022-08-19T04:22:06;17.90;99.90
22491;DHT22;11412;50.802;4.350;2022-08-19T04:24:34;18.00;99.90
22491;DHT22;11412;50.802;4.350;2022-08-19T04:27:00;17.90;99.90
22491;DHT22;11412;50.802;4.350;2022-08-19T04:29:27;18.00;99.90
22491;DHT22;11412;50.802;4.350;2022-08-19T04:31:54;17.90;99.90
22491;DHT22;11412;50.802;4.350;2022-08-19T04:34:22;17.90;99.90
22491;DHT22;11412;50.802;4.350;2022-08-19T04:36:51;17.90;99.90
22491;DHT22;11412;50.802;4.350;2022-08-19T04:39:19;17.90;99.90
22491;DHT22;11412;50.802;4.350;2022-08-19T04:41:46;18.00;99.90
22491;DHT22;11412;50.802;4.350;2022-08-19T04:44:32;18.00;99.90
22491;DHT22;11412;50.802;4.350;2022-08-19T04:46:58;17.90;99.90
22491;DHT22;11412;50.802;4.350;2022-08-19T04:49:24;17.80;99.90
22491;DHT22;11412;50.802;4.350;2022-08-19T04:51:52;17.90;99.90
22491;DHT22;11412;50.802;4.350;2022-08-19T04:54:20;18.10;99.90
22491;DHT22;11412;50.802;4.350;2022-08-19T04:56:48;18.20;99.90
22491;DHT22;11412;50.802;4.350;2022-08-19T04:59:15;18.00;99.90
22491;DHT22;11412;50.802;4.350;2022-08-19T05:01:42;17.90;99.90
22491;DHT22;11412;50.802;4.350;2022-08-19T05:04:08;17.90;99.90
22491;DHT22;11412;50.802;4.350;2022-08-19T05:06:36;17.80;99.90
22491;DHT22;11412;50.802;4.350;2022-08-19T05:09:05;17.90;99.90
22491;DHT22;11412;50.802;4.350;2022-08-19T05:11:34;17.90;99.90
22491;DHT22;11412;50.802;4.350;2022-08-19T05:14:00;17.90;99.90
22491;DHT22;11412;50.802;4.350;2022-08-19T05:16:27;17.90;99.90
22491;DHT22;11412;50.802;4.350;2022-08-19T05:18:54;17.90;99.90
22491;DHT22;11412;50.802;4.350;2022-08-19T05:21:40;17.70;99.90
22491;DHT22;11412;50.802;4.350;2022-08-19T05:24:26;17.80;99.90
22491;DHT22;11412;50.802;4.350;2022-08-19T05:26:53;17.80;99.90
22491;DHT22;11412;50.802;4.350;2022-08-19T05:29:23;17.70;99.90
22491;DHT22;11412;50.802;4.350;2022-08-19T05:31:49;17.70;99.90
22491;DHT22;11412;50.802;4.350;2022-08-19T05:34:18;17.70;99.90
22491;DHT22;11412;50.802;4.350;2022-08-19T05:36:47;17.60;99.90
22491;DHT22;11412;50.802;4.350;2022-08-19T05:39:18;17.80;99.90
22491;DHT22;11412;50.802;4.350;2022-08-19T05:41:46;17.90;99.90
22491;DHT22;11412;50.802;4.350;2022-08-19T05:44:13;17.90;99.90
22491;DHT22;11412;50.802;4.350;2022-08-19T05:46:41;17.80;99.90
22491;DHT22;11412;50.802;4.350;2022-08-19T05:49:08;17.90;99.90
22491;DHT22;11412;50.802;4.350;2022-08-19T05:51:35;18.00;99.90
22491;DHT22;11412;50.802;4.350;2022-08-19T05:54:03;18.10;99.90
22491;DHT22;11412;50.802;4.350;2022-08-19T05:56:29;18.30;99.90
22491;DHT22;11412;50.802;4.350;2022-08-19T05:59:01;18.30;99.90
22491;DHT22;11412;50.802;4.350;2022-08-19T06:01:26;18.30;99.90
22491;DHT22;11412;50.802;4.350;2022-08-19T06:03:52;18.70;99.90
22491;DHT22;11412;50.802;4.350;2022-08-19T06:06:20;18.70;99.90
22491;DHT22;11412;50.802;4.350;2022-08-19T06:08:46;18.80;99.90
22491;DHT22;11412;50.802;4.350;2022-08-19T06:11:25;18.60;99.90
22491;DHT22;11412;50.802;4.350;2022-08-19T06:13:59;18.60;99.90
22491;DHT22;11412;50.802;4.350;2022-08-19T06:16:26;18.60;99.90
22491;DHT22;11412;50.802;4.350;2022-08-19T06:18:53;18.70;99.90
22491;DHT22;11412;50.802;4.350;2022-08-19T06:21:23;18.80;99.90
22491;DHT22;11412;50.802;4.350;2022-08-19T06:23:50;18.90;99.90
22491;DHT22;11412;50.802;4.350;2022-08-19T06:26:18;18.90;99.90
22491;DHT22;11412;50.802;4.350;2022-08-19T06:28:45;19.10;99.90
22491;DHT22;11412;50.802;4.350;2022-08-19T06:31:19;19.30;99.90
22491;DHT22;11412;50.802;4.350;2022-08-19T06:33:46;19.30;99.90
22491;DHT22;11412;50.802;4.350;2022-08-19T06:38:50;19.20;99.90
22491;DHT22;11412;50.802;4.350;2022-08-19T06:41:16;19.10;99.90
22491;DHT22;11412;50.802;4.350;2022-08-19T06:43:42;19.20;99.90
22491;DHT22;11412;50.802;4.350;2022-08-19T06:46:13;19.30;99.90
22491;DHT22;11412;50.802;4.350;2022-08-19T06:48:39;19.40;99.90
22491;DHT22;11412;50.802;4.350;2022-08-19T06:51:05;19.40;99.90
22491;DHT22;11412;50.802;4.350;2022-08-19T06:53:32;19.40;99.90
22491;DHT22;11412;50.802;4.350;2022-08-19T06:55:58;19.50;99.90
22491;DHT22;11412;50.802;4.350;2022-08-19T06:58:26;19.70;99.90
22491;DHT22;11412;50.802;4.350;2022-08-19T07:00:52;19.90;99.90
22491;DHT22;11412;50.802;4.350;2022-08-19T07:03:17;20.00;99.90
22491;DHT22;11412;50.802;4.350;2022-08-19T07:05:43;19.80;99.90
22491;DHT22;11412;50.802;4.350;2022-08-19T07:08:09;19.70;99.90
22491;DHT22;11412;50.802;4.350;2022-08-19T07:10:35;19.70;99.90
22491;DHT22;11412;50.802;4.350;2022-08-19T07:13:02;19.60;99.90
22491;DHT22;11412;50.802;4.350;2022-08-19T07:15:29;19.60;99.90
22491;DHT22;11412;50.802;4.350;2022-08-19T07:17:55;19.50;99.90
22491;DHT22;11412;50.802;4.350;2022-08-19T07:20:21;19.90;99.90
22491;DHT22;11412;50.802;4.350;2022-08-19T07:22:47;19.90;99.90
22491;DHT22;11412;50.802;4.350;2022-08-19T07:25:13;20.10;99.90
22491;DHT22;11412;50.802;4.350;2022-08-19T07:27:38;20.50;99.90
22491;DHT22;11412;50.802;4.350;2022-08-19T07:30:06;20.30;99.90
22491;DHT22;11412;50.802;4.350;2022-08-19T07:32:32;20.30;99.90
22491;DHT22;11412;50.802;4.350;2022-08-19T07:34:58;20.30;99.90
22491;DHT22;11412;50.802;4.350;2022-08-19T07:37:25;20.30;99.90
22491;DHT22;11412;50.802;4.350;2022-08-19T07:39:53;20.30;99.90
22491;DHT22;11412;50.802;4.350;2022-08-19T07:42:19;20.20;99.90
22491;DHT22;11412;50.802;4.350;2022-08-19T07:44:46;20.20;99.90
22491;DHT22;11412;50.802;4.350;2022-08-19T07:47:12;20.30;99.90
22491;DHT22;11412;50.802;4.350;2022-08-19T07:49:38;20.40;99.90
22491;DHT22;11412;50.802;4.350;2022-08-19T07:52:07;20.50;99.90
22491;DHT22;11412;50.802;4.350;2022-08-19T07:54:35;20.50;99.90
22491;DHT22;11412;50.802;4.350;2022-08-19T07:57:03;20.60;99.90
22491;DHT22;11412;50.802;4.350;2022-08-19T07:59:29;20.50;99.90
22491;DHT22;11412;50.802;4.350;2022-08-19T08:01:55;20.60;99.90
22491;DHT22;11412;50.802;4.350;2022-08-19T08:04:22;20.70;99.90
22491;DHT22;11412;50.802;4.350;2022-08-19T08:07:07;20.70;99.90
22491;DHT22;11412;50.802;4.350;2022-08-19T08:09:52;20.80;99.90
22491;DHT22;11412;50.802;4.350;2022-08-19T08:12:25;20.90;99.90
22491;DHT22;11412;50.802;4.350;2022-08-19T08:14:57;21.00;99.90
22491;DHT22;11412;50.802;4.350;2022-08-19T08:17:26;21.00;99.90
22491;DHT22;11412;50.802;4.350;2022-08-19T08:19:52;21.00;99.90
22491;DHT22;11412;50.802;4.350;2022-08-19T08:22:22;21.10;99.90
22491;DHT22;11412;50.802;4.350;2022-08-19T08:25:09;21.10;99.90
22491;DHT22;11412;50.802;4.350;2022-08-19T08:27:40;21.20;99.90
22491;DHT22;11412;50.802;4.350;2022-08-19T08:30:08;21.20;99.90
22491;DHT22;11412;50.802;4.350;2022-08-19T08:32:36;21.20;99.90
22491;DHT22;11412;50.802;4.350;2022-08-19T08:35:04;21.20;99.90
22491;DHT22;11412;50.802;4.350;2022-08-19T08:37:29;21.30;99.90
22491;DHT22;11412;50.802;4.350;2022-08-19T08:39:55;21.50;99.90
22491;DHT22;11412;50.802;4.350;2022-08-19T08:42:32;21.60;99.90
22491;DHT22;11412;50.802;4.350;2022-08-19T08:45:03;21.60;99.90
22491;DHT22;11412;50.802;4.350;2022-08-19T08:47:36;21.60;99.90
22491;DHT22;11412;50.802;4.350;2022-08-19T08:50:04;21.60;99.90
22491;DHT22;11412;50.802;4.350;2022-08-19T08:52:39;21.50;99.90
22491;DHT22;11412;50.802;4.350;2022-08-19T08:55:15;21.40;99.90
22491;DHT22;11412;50.802;4.350;2022-08-19T09:00:34;21.20;99.90
22491;DHT22;11412;50.802;4.350;2022-08-19T09:03:02;21.30;99.90
22491;DHT22;11412;50.802;4.350;2022-08-19T09:05:43;21.30;99.90
22491;DHT22;11412;50.802;4.350;2022-08-19T09:11:32;21.60;99.90
22491;DHT22;11412;50.802;4.350;2022-08-19T09:15:11;21.60;99.90
22491;DHT22;11412;50.802;4.350;2022-08-19T09:17:08;21.50;99.90
22491;DHT22;11412;50.802;4.350;2022-08-19T09:19:50;21.60;99.90
22491;DHT22;11412;50.802;4.350;2022-08-19T09:22:17;21.70;99.90
22491;DHT22;11412;50.802;4.350;2022-08-19T09:24:43;21.80;99.90
22491;DHT22;11412;50.802;4.350;2022-08-19T09:27:09;21.80;99.90
22491;DHT22;11412;50.802;4.350;2022-08-19T09:29:34;21.70;99.90
22491;DHT22;11412;50.802;4.350;2022-08-19T09:32:00;21.70;99.90
22491;DHT22;11412;50.802;4.350;2022-08-19T09:34:26;21.70;99.90
22491;DHT22;11412;50.802;4.350;2022-08-19T09:36:51;21.50;99.90
22491;DHT22;11412;50.802;4.350;2022-08-19T09:39:18;21.50;99.90
22491;DHT22;11412;50.802;4.350;2022-08-19T09:41:44;21.60;99.90
22491;DHT22;11412;50.802;4.350;2022-08-19T09:44:10;21.70;99.90
22491;DHT22;11412;50.802;4.350;2022-08-19T09:46:37;21.70;99.90
22491;DHT22;11412;50.802;4.350;2022-08-19T09:49:03;21.60;99.90
22491;DHT22;11412;50.802;4.350;2022-08-19T09:51:32;21.60;99.90
22491;DHT22;11412;50.802;4.350;2022-08-19T09:54:03;21.70;99.90
22491;DHT22;11412;50.802;4.350;2022-08-19T09:56:29;22.00;99.90
22491;DHT22;11412;50.802;4.350;2022-08-19T09:58:58;22.20;99.90
22491;DHT22;11412;50.802;4.350;2022-08-19T10:01:28;22.10;99.90
22491;DHT22;11412;50.802;4.350;2022-08-19T10:03:56;22.20;99.90
22491;DHT22;11412;50.802;4.350;2022-08-19T10:06:23;22.40;99.90
22491;DHT22;11412;50.802;4.350;2022-08-19T10:08:50;22.30;99.90
22491;DHT22;11412;50.802;4.350;2022-08-19T10:11:18;22.20;99.90
22491;DHT22;11412;50.802;4.350;2022-08-19T10:13:44;22.20;99.90
22491;DHT22;11412;50.802;4.350;2022-08-19T10:16:16;22.10;99.90
22491;DHT22;11412;50.802;4.350;2022-08-19T10:18:44;22.00;99.90
22491;DHT22;11412;50.802;4.350;2022-08-19T10:21:16;22.10;99.90
22491;DHT22;11412;50.802;4.350;2022-08-19T10:23:44;22.00;99.90
22491;DHT22;11412;50.802;4.350;2022-08-19T10:26:13;22.10;99.90
22491;DHT22;11412;50.802;4.350;2022-08-19T10:28:39;22.10;99.90
22491;DHT22;11412;50.802;4.350;2022-08-19T10:31:29;22.10;99.90
22491;DHT22;11412;50.802;4.350;2022-08-19T10:33:56;22.30;99.90
22491;DHT22;11412;50.802;4.350;2022-08-19T10:36:28;22.20;99.90
22491;DHT22;11412;50.802;4.350;2022-08-19T10:38:55;22.20;99.90
22491;DHT22;11412;50.802;4.350;2022-08-19T10:41:28;22.20;99.90
22491;DHT22;11412;50.802;4.350;2022-08-19T10:44:00;22.20;99.90
22491;DHT22;11412;50.802;4.350;2022-08-19T10:46:27;22.60;99.90
22491;DHT22;11412;50.802;4.350;2022-08-19T10:48:53;22.70;99.90
22491;DHT22;11412;50.802;4.350;2022-08-19T10:51:20;22.70;99.90
22491;DHT22;11412;50.802;4.350;2022-08-19T10:54:04;22.80;99.90
22491;DHT22;11412;50.802;4.350;2022-08-19T10:56:31;22.80;99.90
22491;DHT22;11412;50.802;4.350;2022-08-19T10:59:17;22.60;99.90
22491;DHT22;11412;50.802;4.350;2022-08-19T11:01:44;22.70;99.90
22491;DHT22;11412;50.802;4.350;2022-08-19T11:04:11;22.90;99.90
22491;DHT22;11412;50.802;4.350;2022-08-19T11:06:41;22.80;99.90
22491;DHT22;11412;50.802;4.350;2022-08-19T11:09:08;22.70;99.90
22491;DHT22;11412;50.802;4.350;2022-08-19T11:11:35;22.60;99.90
22491;DHT22;11412;50.802;4.350;2022-08-19T11:14:15;22.30;99.90
22491;DHT22;11412;50.802;4.350;2022-08-19T11:16:43;22.30;99.90
22491;DHT22;11412;50.802;4.350;2022-08-19T11:19:11;22.40;99.90
22491;DHT22;11412;50.802;4.350;2022-08-19T11:21:43;22.30;99.90
22491;DHT22;11412;50.802;4.350;2022-08-19T11:24:16;22.30;99.90
22491;DHT22;11412;50.802;4.350;2022-08-19T11:26:43;22.40;99.90
22491;DHT22;11412;50.802;4.350;2022-08-19T11:29:11;22.50;99.90
22491;DHT22;11412;50.802;4.350;2022-08-19T11:31:40;22.40;99.90
22491;DHT22;11412;50.802;4.350;2022-08-19T11:34:08;22.50;99.90
22491;DHT22;11412;50.802;4.350;2022-08-19T11:36:36;22.40;99.90
22491;DHT22;11412;50.802;4.350;2022-08-19T11:39:04;22.60;99.90
22491;DHT22;11412;50.802;4.350;2022-08-19T11:41:30;22.70;99.90
22491;DHT22;11412;50.802;4.350;2022-08-19T11:43:56;22.50;99.90
22491;DHT22;11412;50.802;4.350;2022-08-19T11:46:24;22.50;99.90
22491;DHT22;11412;50.802;4.350;2022-08-19T11:48:50;22.50;99.90
22491;DHT22;11412;50.802;4.350;2022-08-19T11:51:21;22.60;99.90
22491;DHT22;11412;50.802;4.350;2022-08-19T11:53:48;22.70;99.90
22491;DHT22;11412;50.802;4.350;2022-08-19T11:56:14;23.00;99.90
22491;DHT22;11412;50.802;4.350;2022-08-19T11:58:40;23.20;99.90
22491;DHT22;11412;50.802;4.350;2022-08-19T12:01:11;23.50;99.90
22491;DHT22;11412;50.802;4.350;2022-08-19T12:03:38;23.60;99.90
22491;DHT22;11412;50.802;4.350;2022-08-19T12:06:06;23.60;99.90
22491;DHT22;11412;50.802;4.350;2022-08-19T12:08:32;23.80;99.90
22491;DHT22;11412;50.802;4.350;2022-08-19T12:10:58;24.30;99.90
22491;DHT22;11412;50.802;4.350;2022-08-19T12:13:27;24.80;99.90
22491;DHT22;11412;50.802;4.350;2022-08-19T12:15:53;24.90;99.90
22491;DHT22;11412;50.802;4.350;2022-08-19T12:18:19;25.10;99.90
22491;DHT22;11412;50.802;4.350;2022-08-19T12:20:45;25.10;99.90
22491;DHT22;11412;50.802;4.350;2022-08-19T12:23:13;25.30;99.90
22491;DHT22;11412;50.802;4.350;2022-08-19T12:25:49;24.90;99.90
22491;DHT22;11412;50.802;4.350;2022-08-19T12:28:22;24.70;99.90
22491;DHT22;11412;50.802;4.350;2022-08-19T12:30:49;24.50;99.90
22491;DHT22;11412;50.802;4.350;2022-08-19T12:33:17;24.10;99.90
22491;DHT22;11412;50.802;4.350;2022-08-19T12:35:44;24.20;99.90
22491;DHT22;11412;50.802;4.350;2022-08-19T12:38:11;24.30;99.90
22491;DHT22;11412;50.802;4.350;2022-08-19T12:40:37;24.20;99.90
22491;DHT22;11412;50.802;4.350;2022-08-19T12:43:03;24.60;99.90
22491;DHT22;11412;50.802;4.350;2022-08-19T12:45:29;24.80;99.90
22491;DHT22;11412;50.802;4.350;2022-08-19T12:47:55;25.10;99.90
22491;DHT22;11412;50.802;4.350;2022-08-19T12:50:20;24.80;99.90
22491;DHT22;11412;50.802;4.350;2022-08-19T12:52:47;24.60;99.90
22491;DHT22;11412;50.802;4.350;2022-08-19T12:55:13;24.70;99.90
22491;DHT22;11412;50.802;4.350;2022-08-19T12:57:39;24.60;99.90
22491;DHT22;11412;50.802;4.350;2022-08-19T13:00:08;24.80;99.90
22491;DHT22;11412;50.802;4.350;2022-08-19T13:02:39;25.20;99.90
22491;DHT22;11412;50.802;4.350;2022-08-19T13:05:11;25.70;99.90
22491;DHT22;11412;50.802;4.350;2022-08-19T13:07:38;26.10;99.90
22491;DHT22;11412;50.802;4.350;2022-08-19T13:10:09;25.80;99.90
22491;DHT22;11412;50.802;4.350;2022-08-19T13:12:37;25.60;99.90
22491;DHT22;11412;50.802;4.350;2022-08-19T13:15:04;25.40;99.90
22491;DHT22;11412;50.802;4.350;2022-08-19T13:17:30;25.20;99.90
22491;DHT22;11412;50.802;4.350;2022-08-19T13:19:55;25.10;99.90
22491;DHT22;11412;50.802;4.350;2022-08-19T13:22:21;25.10;99.90
22491;DHT22;11412;50.802;4.350;2022-08-19T13:24:47;25.20;99.90
22491;DHT22;11412;50.802;4.350;2022-08-19T13:27:13;25.30;99.90
22491;DHT22;11412;50.802;4.350;2022-08-19T13:29:40;25.30;99.90
22491;DHT22;11412;50.802;4.350;2022-08-19T13:32:25;25.60;99.90
22491;DHT22;11412;50.802;4.350;2022-08-19T13:35:09;25.60;99.90
22491;DHT22;11412;50.802;4.350;2022-08-19T13:37:35;25.80;99.90
22491;DHT22;11412;50.802;4.350;2022-08-19T13:40:27;25.70;99.90
22491;DHT22;11412;50.802;4.350;2022-08-19T13:42:54;25.70;99.90
22491;DHT22;11412;50.802;4.350;2022-08-19T13:45:23;26.00;99.90
22491;DHT22;11412;50.802;4.350;2022-08-19T13:47:51;26.00;99.90
22491;DHT22;11412;50.802;4.350;2022-08-19T13:50:20;26.20;99.90
22491;DHT22;11412;50.802;4.350;2022-08-19T13:52:46;26.20;99.90
22491;DHT22;11412;50.802;4.350;2022-08-19T13:55:13;26.30;99.90
22491;DHT22;11412;50.802;4.350;2022-08-19T13:57:39;26.20;99.90
22491;DHT22;11412;50.802;4.350;2022-08-19T14:00:13;26.30;99.90
22491;DHT22;11412;50.802;4.350;2022-08-19T14:02:40;25.70;99.90
22491;DHT22;11412;50.802;4.350;2022-08-19T14:05:08;25.70;99.90
22491;DHT22;11412;50.802;4.350;2022-08-19T14:07:34;25.30;99.90
22491;DHT22;11412;50.802;4.350;2022-08-19T14:10:02;25.20;99.90
22491;DHT22;11412;50.802;4.350;2022-08-19T14:12:28;25.00;99.90
22491;DHT22;11412;50.802;4.350;2022-08-19T14:14:53;24.60;99.90
22491;DHT22;11412;50.802;4.350;2022-08-19T14:17:19;24.60;99.90
22491;DHT22;11412;50.802;4.350;2022-08-19T14:19:45;24.60;99.90
22491;DHT22;11412;50.802;4.350;2022-08-19T14:22:10;24.70;99.90
22491;DHT22;11412;50.802;4.350;2022-08-19T14:24:39;24.50;99.90
22491;DHT22;11412;50.802;4.350;2022-08-19T14:27:06;24.50;99.90
22491;DHT22;11412;50.802;4.350;2022-08-19T14:29:33;24.30;99.90
22491;DHT22;11412;50.802;4.350;2022-08-19T14:31:59;24.10;99.90
22491;DHT22;11412;50.802;4.350;2022-08-19T14:34:25;23.80;99.90
22491;DHT22;11412;50.802;4.350;2022-08-19T14:36:52;23.50;99.90
22491;DHT22;11412;50.802;4.350;2022-08-19T14:39:17;23.30;99.90
22491;DHT22;11412;50.802;4.350;2022-08-19T14:41:43;23.20;99.90
22491;DHT22;11412;50.802;4.350;2022-08-19T14:44:11;23.10;99.90
22491;DHT22;11412;50.802;4.350;2022-08-19T14:46:38;22.80;99.90
22491;DHT22;11412;50.802;4.350;2022-08-19T14:49:04;22.90;99.90
22491;DHT22;11412;50.802;4.350;2022-08-19T14:51:31;23.00;99.90
22491;DHT22;11412;50.802;4.350;2022-08-19T14:53:56;23.20;99.90
22491;DHT22;11412;50.802;4.350;2022-08-19T14:56:26;23.60;99.90
22491;DHT22;11412;50.802;4.350;2022-08-19T14:58:53;24.00;99.90
22491;DHT22;11412;50.802;4.350;2022-08-19T15:01:20;24.50;99.90
22491;DHT22;11412;50.802;4.350;2022-08-19T15:03:47;24.80;99.90
22491;DHT22;11412;50.802;4.350;2022-08-19T15:06:13;24.60;99.90
22491;DHT22;11412;50.802;4.350;2022-08-19T15:08:41;24.60;99.90
22491;DHT22;11412;50.802;4.350;2022-08-19T15:11:14;24.30;99.90
22491;DHT22;11412;50.802;4.350;2022-08-19T15:13:41;24.10;99.90
22491;DHT22;11412;50.802;4.350;2022-08-19T15:16:08;24.00;99.90
22491;DHT22;11412;50.802;4.350;2022-08-19T15:18:34;24.00;99.90
22491;DHT22;11412;50.802;4.350;2022-08-19T15:21:00;24.00;99.90
22491;DHT22;11412;50.802;4.350;2022-08-19T15:23:26;24.00;99.90
22491;DHT22;11412;50.802;4.350;2022-08-19T15:25:52;23.70;99.90
22491;DHT22;11412;50.802;4.350;2022-08-19T15:28:20;23.50;99.90
22491;DHT22;11412;50.802;4.350;2022-08-19T15:30:46;23.70;99.90
22491;DHT22;11412;50.802;4.350;2022-08-19T15:33:12;24.00;99.90
22491;DHT22;11412;50.802;4.350;2022-08-19T15:35:41;24.20;99.90
22491;DHT22;11412;50.802;4.350;2022-08-19T15:38:07;24.40;99.90
22491;DHT22;11412;50.802;4.350;2022-08-19T15:40:34;24.80;99.90
22491;DHT22;11412;50.802;4.350;2022-08-19T15:43:00;25.10;99.90
22491;DHT22;11412;50.802;4.350;2022-08-19T15:45:26;25.30;99.90
22491;DHT22;11412;50.802;4.350;2022-08-19T15:48:01;25.10;99.90